createdAt,value
2023-01-02T00:00:33.380Z,1017.78
2023-01-02T00:01:33.510Z,1017.73
2023-01-02T00:02:33.741Z,1017.67
2023-01-02T00:03:34.014Z,1017.66
2023-01-02T00:04:34.007Z,1017.66
2023-01-02T00:05:34.159Z,1017.66
2023-01-02T00:06:34.328Z,1017.65
2023-01-02T00:07:34.519Z,1017.63
2023-01-02T00:08:34.688Z,1017.60
2023-01-02T00:09:34.843Z,1017.56
2023-01-02T00:10:35.027Z,1017.60
2023-01-02T00:11:35.179Z,1017.59
2023-01-02T00:12:35.357Z,1017.58
2023-01-02T00:13:35.509Z,1017.58
2023-01-02T00:14:35.704Z,1017.52
2023-01-02T00:15:35.875Z,1017.49
2023-01-02T00:16:36.109Z,1017.52
2023-01-02T00:17:36.199Z,1017.52
2023-01-02T00:18:36.370Z,1017.54
2023-01-02T00:19:36.523Z,1017.59
2023-01-02T00:20:36.688Z,1017.62
2023-01-02T00:21:36.849Z,1017.58
2023-01-02T00:22:37.016Z,1017.64
2023-01-02T00:23:37.180Z,1017.64
2023-01-02T00:24:37.337Z,1017.58
2023-01-02T00:25:37.527Z,1017.58
2023-01-02T00:26:37.678Z,1017.61
2023-01-02T00:27:37.838Z,1017.61
2023-01-02T00:28:38.012Z,1017.65
2023-01-02T00:29:38.177Z,1017.65
2023-01-02T00:30:38.777Z,1017.66
2023-01-02T00:31:38.542Z,1017.67
2023-01-02T00:32:38.698Z,1017.62
2023-01-02T00:33:38.867Z,1017.59
2023-01-02T00:34:39.037Z,1017.56
2023-01-02T00:35:39.215Z,1017.49
2023-01-02T00:36:39.385Z,1017.52
2023-01-02T00:37:39.537Z,1017.49
2023-01-02T00:38:39.726Z,1017.48
2023-01-02T00:39:39.889Z,1017.50
2023-01-02T00:40:40.067Z,1017.52
2023-01-02T00:41:40.228Z,1017.50
2023-01-02T00:42:40.399Z,1017.50
2023-01-02T00:43:40.561Z,1017.49
2023-01-02T00:44:40.727Z,1017.51
2023-01-02T00:45:40.909Z,1017.47
2023-01-02T00:46:41.115Z,1017.45
2023-01-02T00:47:41.252Z,1017.45
2023-01-02T00:48:41.494Z,1017.48
2023-01-02T00:49:41.627Z,1017.43
2023-01-02T00:50:41.878Z,1017.48
2023-01-02T00:51:41.976Z,1017.45
2023-01-02T00:52:42.136Z,1017.41
2023-01-02T00:53:42.310Z,1017.39
2023-01-02T00:54:42.466Z,1017.42
2023-01-02T00:55:42.637Z,1017.40
2023-01-02T00:56:42.797Z,1017.38
2023-01-02T00:57:42.969Z,1017.38
2023-01-02T00:58:43.167Z,1017.38
2023-01-02T00:59:43.346Z,1017.36
2023-01-02T01:00:43.543Z,1017.35
2023-01-02T01:01:43.831Z,1017.36
2023-01-02T01:02:44.037Z,1017.32
2023-01-02T01:03:44.041Z,1017.29
2023-01-02T01:04:44.200Z,1017.35
2023-01-02T01:05:44.357Z,1017.31
2023-01-02T01:06:44.528Z,1017.26
2023-01-02T01:07:44.706Z,1017.28
2023-01-02T01:08:44.872Z,1017.24
2023-01-02T01:09:45.028Z,1017.22
2023-01-02T01:10:45.199Z,1017.19
2023-01-02T01:11:45.425Z,1017.25
2023-01-02T01:12:45.530Z,1017.25
2023-01-02T01:13:45.700Z,1017.24
2023-01-02T01:14:45.847Z,1017.24
2023-01-02T01:15:46.047Z,1017.24
2023-01-02T01:16:46.189Z,1017.21
2023-01-02T01:17:46.329Z,1017.12
2023-01-02T01:18:46.532Z,1017.11
2023-01-02T01:19:46.689Z,1017.08
2023-01-02T01:20:46.868Z,1017.08
2023-01-02T01:21:47.031Z,1017.07
2023-01-02T01:22:47.198Z,1017.03
2023-01-02T01:23:47.348Z,1017.02
2023-01-02T01:24:47.545Z,1016.92
2023-01-02T01:25:47.777Z,1016.91
2023-01-02T01:26:47.887Z,1016.94
2023-01-02T01:27:48.041Z,1016.91
2023-01-02T01:28:48.196Z,1016.95
2023-01-02T01:29:48.365Z,1017.03
2023-01-02T01:30:48.537Z,1016.94
2023-01-02T01:31:48.755Z,1016.93
2023-01-02T01:32:48.878Z,1016.98
2023-01-02T01:33:49.017Z,1016.98
2023-01-02T01:34:49.222Z,1016.90
2023-01-02T01:35:49.392Z,1016.97
2023-01-02T01:36:49.547Z,1016.98
2023-01-02T01:37:49.711Z,1016.91
2023-01-02T01:38:49.880Z,1016.86
2023-01-02T01:39:55.424Z,1016.89
2023-01-02T01:40:51.247Z,1016.86
2023-01-02T01:41:50.382Z,1016.87
2023-01-02T01:42:50.693Z,1016.84
2023-01-02T01:43:50.729Z,1016.84
2023-01-02T01:44:50.919Z,1016.86
2023-01-02T01:45:51.101Z,1016.84
2023-01-02T01:46:51.229Z,1016.82
2023-01-02T01:47:51.391Z,1016.73
2023-01-02T01:48:51.580Z,1016.74
2023-01-02T01:49:51.723Z,1016.71
2023-01-02T01:50:51.900Z,1016.69
2023-01-02T01:51:52.074Z,1016.71
2023-01-02T01:52:52.228Z,1016.65
2023-01-02T01:53:52.395Z,1016.63
2023-01-02T01:54:52.555Z,1016.66
2023-01-02T01:55:52.755Z,1016.65
2023-01-02T01:56:52.899Z,1016.58
2023-01-02T01:57:53.048Z,1016.59
2023-01-02T01:58:53.219Z,1016.55
2023-01-02T01:59:53.393Z,1016.57
2023-01-02T02:00:53.602Z,1016.58
2023-01-02T02:01:53.932Z,1016.60
2023-01-02T02:02:54.030Z,1016.55
2023-01-02T02:03:54.124Z,1016.50
2023-01-02T02:04:54.285Z,1016.52
2023-01-02T02:05:54.457Z,1016.49
2023-01-02T02:06:54.624Z,1016.49
2023-01-02T02:07:54.797Z,1016.54
2023-01-02T02:08:54.967Z,1016.49
2023-01-02T02:09:55.126Z,1016.32
2023-01-02T02:10:55.308Z,1016.40
2023-01-02T02:11:55.484Z,1016.45
2023-01-02T02:12:55.665Z,1016.41
2023-01-02T02:13:55.809Z,1016.26
2023-01-02T02:14:56.018Z,1016.25
2023-01-02T02:15:56.183Z,1016.31
2023-01-02T02:16:56.385Z,1016.32
2023-01-02T02:17:56.529Z,1016.31
2023-01-02T02:18:56.703Z,1016.15
2023-01-02T02:19:56.852Z,1016.16
2023-01-02T02:20:57.017Z,1016.16
2023-01-02T02:21:57.188Z,1016.09
2023-01-02T02:22:57.351Z,1016.04
2023-01-02T02:23:57.509Z,1016.06
2023-01-02T02:24:57.672Z,1016.08
2023-01-02T02:25:57.828Z,1016.17
2023-01-02T02:26:58.009Z,1016.23
2023-01-02T02:27:58.178Z,1016.14
2023-01-02T02:28:58.349Z,1016.04
2023-01-02T02:29:58.499Z,1015.99
2023-01-02T02:30:59.667Z,1015.99
2023-01-02T02:31:58.909Z,1016.02
2023-01-02T02:32:59.059Z,1015.94
2023-01-02T02:33:59.240Z,1015.91
2023-01-02T02:34:59.400Z,1015.95
2023-01-02T02:35:59.548Z,1016.04
2023-01-02T02:36:59.747Z,1016.05
2023-01-02T02:37:59.916Z,1016.07
2023-01-02T02:39:00.108Z,1016.10
2023-01-02T02:40:00.236Z,1016.09
2023-01-02T02:41:00.414Z,1016.04
2023-01-02T02:42:00.575Z,1016.02
2023-01-02T02:43:00.738Z,1016.04
2023-01-02T02:44:00.906Z,1016.00
2023-01-02T02:45:01.065Z,1016.00
2023-01-02T02:46:01.281Z,1015.96
2023-01-02T02:47:01.430Z,1015.96
2023-01-02T02:48:01.595Z,1016.01
2023-01-02T02:49:01.781Z,1015.98
2023-01-02T02:50:01.896Z,1015.94
2023-01-02T02:51:02.074Z,1015.91
2023-01-02T02:52:02.246Z,1015.88
2023-01-02T02:53:02.421Z,1015.85
2023-01-02T02:54:02.579Z,1015.89
2023-01-02T02:55:02.741Z,1015.92
2023-01-02T02:56:02.903Z,1015.90
2023-01-02T02:57:03.101Z,1015.85
2023-01-02T02:58:03.267Z,1015.88
2023-01-02T02:59:03.407Z,1015.90
2023-01-02T03:00:03.615Z,1015.88
2023-01-02T03:01:03.768Z,1015.87
2023-01-02T03:02:04.084Z,1015.78
2023-01-02T03:03:04.142Z,1015.80
2023-01-02T03:04:04.250Z,1015.77
2023-01-02T03:05:04.446Z,1015.74
2023-01-02T03:06:04.589Z,1015.76
2023-01-02T03:07:04.782Z,1015.74
2023-01-02T03:08:04.922Z,1015.74
2023-01-02T03:09:05.080Z,1015.80
2023-01-02T03:10:05.248Z,1015.80
2023-01-02T03:11:05.411Z,1015.78
2023-01-02T03:12:05.579Z,1015.81
2023-01-02T03:13:05.742Z,1015.80
2023-01-02T03:14:05.922Z,1015.80
2023-01-02T03:15:06.066Z,1015.78
2023-01-02T03:16:06.233Z,1015.75
2023-01-02T03:17:06.404Z,1015.75
2023-01-02T03:18:06.573Z,1015.76
2023-01-02T03:19:06.740Z,1015.76
2023-01-02T03:20:06.906Z,1015.74
2023-01-02T03:21:07.079Z,1015.72
2023-01-02T03:22:07.259Z,1015.77
2023-01-02T03:23:07.412Z,1015.71
2023-01-02T03:24:07.591Z,1015.69
2023-01-02T03:25:07.760Z,1015.67
2023-01-02T03:26:07.921Z,1015.71
2023-01-02T03:27:08.095Z,1015.68
2023-01-02T03:28:08.272Z,1015.62
2023-01-02T03:29:08.435Z,1015.60
2023-01-02T03:30:08.593Z,1015.61
2023-01-02T03:31:08.769Z,1015.62
2023-01-02T03:32:08.900Z,1015.62
2023-01-02T03:33:09.083Z,1015.62
2023-01-02T03:34:09.250Z,1015.68
2023-01-02T03:35:09.400Z,1015.62
2023-01-02T03:36:09.571Z,1015.62
2023-01-02T03:37:09.725Z,1015.63
2023-01-02T03:38:09.913Z,1015.69
2023-01-02T03:39:10.075Z,1015.68
2023-01-02T03:40:10.228Z,1015.67
2023-01-02T03:41:10.390Z,1015.66
2023-01-02T03:42:10.585Z,1015.70
2023-01-02T03:43:10.752Z,1015.65
2023-01-02T03:44:10.912Z,1015.62
2023-01-02T03:45:11.073Z,1015.59
2023-01-02T03:46:11.253Z,1015.60
2023-01-02T03:47:11.412Z,1015.64
2023-01-02T03:48:11.621Z,1015.60
2023-01-02T03:49:11.792Z,1015.62
2023-01-02T03:50:11.967Z,1015.52
2023-01-02T03:51:12.130Z,1015.60
2023-01-02T03:52:12.291Z,1015.60
2023-01-02T03:53:12.452Z,1015.62
2023-01-02T03:54:12.611Z,1015.58
2023-01-02T03:55:12.772Z,1015.64
2023-01-02T03:56:12.937Z,1015.62
2023-01-02T03:57:13.096Z,1015.61
2023-01-02T03:58:13.264Z,1015.60
2023-01-02T03:59:13.425Z,1015.62
2023-01-02T04:00:13.583Z,1015.60
2023-01-02T04:01:13.816Z,1015.61
2023-01-02T04:02:14.056Z,1015.57
2023-01-02T04:03:14.088Z,1015.54
2023-01-02T04:04:14.232Z,1015.48
2023-01-02T04:05:14.406Z,1015.55
2023-01-02T04:06:14.567Z,1015.46
2023-01-02T04:07:14.723Z,1015.46
2023-01-02T04:08:14.897Z,1015.45
2023-01-02T04:09:15.059Z,1015.50
2023-01-02T04:10:15.216Z,1015.44
2023-01-02T04:11:15.387Z,1015.51
2023-01-02T04:12:15.562Z,1015.53
2023-01-02T04:13:15.714Z,1015.51
2023-01-02T04:14:15.884Z,1015.52
2023-01-02T04:15:16.043Z,1015.49
2023-01-02T04:16:16.211Z,1015.51
2023-01-02T04:17:16.402Z,1015.50
2023-01-02T04:18:16.544Z,1015.51
2023-01-02T04:19:16.703Z,1015.54
2023-01-02T04:20:16.871Z,1015.51
2023-01-02T04:21:17.023Z,1015.48
2023-01-02T04:22:17.213Z,1015.48
2023-01-02T04:23:17.402Z,1015.48
2023-01-02T04:24:17.532Z,1015.39
2023-01-02T04:25:17.702Z,1015.39
2023-01-02T04:26:17.859Z,1015.42
2023-01-02T04:27:18.034Z,1015.34
2023-01-02T04:28:18.201Z,1015.34
2023-01-02T04:29:18.355Z,1015.34
2023-01-02T04:30:18.517Z,1015.38
2023-01-02T04:31:18.723Z,1015.38
2023-01-02T04:32:18.882Z,1015.39
2023-01-02T04:33:19.037Z,1015.34
2023-01-02T04:34:19.203Z,1015.35
2023-01-02T04:35:19.389Z,1015.26
2023-01-02T04:36:19.542Z,1015.28
2023-01-02T04:37:19.704Z,1015.29
2023-01-02T04:38:19.873Z,1015.26
2023-01-02T04:39:20.032Z,1015.24
2023-01-02T04:40:20.201Z,1015.23
2023-01-02T04:41:20.353Z,1015.26
2023-01-02T04:42:20.526Z,1015.25
2023-01-02T04:43:20.717Z,1015.21
2023-01-02T04:44:20.853Z,1015.24
2023-01-02T04:45:21.022Z,1015.21
2023-01-02T04:46:21.207Z,1015.23
2023-01-02T04:47:22.037Z,1015.22
2023-01-02T04:48:21.522Z,1015.31
2023-01-02T04:49:21.693Z,1015.28
2023-01-02T04:50:21.870Z,1015.32
2023-01-02T04:51:22.004Z,1015.33
2023-01-02T04:52:22.215Z,1015.29
2023-01-02T04:53:22.374Z,1015.33
2023-01-02T04:54:22.541Z,1015.30
2023-01-02T04:55:22.701Z,1015.29
2023-01-02T04:56:22.860Z,1015.26
2023-01-02T04:57:23.035Z,1015.24
2023-01-02T04:58:23.203Z,1015.24
2023-01-02T04:59:23.354Z,1015.23
2023-01-02T05:00:23.514Z,1015.27
2023-01-02T05:01:23.746Z,1015.27
2023-01-02T05:02:24.012Z,1015.27
2023-01-02T05:03:24.033Z,1015.28
2023-01-02T05:04:24.195Z,1015.30
2023-01-02T05:05:24.377Z,1015.29
2023-01-02T05:06:24.525Z,1015.33
2023-01-02T05:07:24.715Z,1015.31
2023-01-02T05:08:24.864Z,1015.31
2023-01-02T05:09:25.015Z,1015.33
2023-01-02T05:10:25.241Z,1015.36
2023-01-02T05:11:25.402Z,1015.41
2023-01-02T05:12:25.576Z,1015.34
2023-01-02T05:13:25.737Z,1015.37
2023-01-02T05:14:25.893Z,1015.38
2023-01-02T05:15:26.055Z,1015.33
2023-01-02T05:16:26.265Z,1015.33
2023-01-02T05:17:26.396Z,1015.34
2023-01-02T05:18:26.565Z,1015.35
2023-01-02T05:19:26.734Z,1015.37
2023-01-02T05:20:26.885Z,1015.35
2023-01-02T05:21:27.049Z,1015.30
2023-01-02T05:22:27.225Z,1015.38
2023-01-02T05:23:27.383Z,1015.35
2023-01-02T05:24:27.563Z,1015.32
2023-01-02T05:25:27.708Z,1015.33
2023-01-02T05:26:27.869Z,1015.30
2023-01-02T05:27:28.059Z,1015.33
2023-01-02T05:28:31.171Z,1015.32
2023-01-02T05:29:29.387Z,1015.33
2023-01-02T05:30:28.588Z,1015.24
2023-01-02T05:31:28.918Z,1015.25
2023-01-02T05:32:28.934Z,1015.24
2023-01-02T05:33:29.092Z,1015.24
2023-01-02T05:34:29.261Z,1015.27
2023-01-02T05:35:33.000Z,1015.26
2023-01-02T05:36:29.627Z,1015.23
2023-01-02T05:37:29.795Z,1015.22
2023-01-02T05:38:29.957Z,1015.17
2023-01-02T05:39:30.122Z,1015.18
2023-01-02T05:40:30.285Z,1015.15
2023-01-02T05:41:30.457Z,1015.18
2023-01-02T05:42:30.631Z,1015.20
2023-01-02T05:43:30.789Z,1015.19
2023-01-02T05:44:30.946Z,1015.17
2023-01-02T05:45:31.112Z,1015.19
2023-01-02T05:46:31.295Z,1015.15
2023-01-02T05:47:31.456Z,1015.20
2023-01-02T05:48:31.620Z,1015.20
2023-01-02T05:49:31.778Z,1015.15
2023-01-02T05:50:31.949Z,1015.13
2023-01-02T05:51:32.108Z,1015.12
2023-01-02T05:52:32.278Z,1015.15
2023-01-02T05:53:32.447Z,1015.14
2023-01-02T05:54:32.615Z,1015.08
2023-01-02T05:55:32.767Z,1015.17
2023-01-02T05:56:32.945Z,1015.15
2023-01-02T05:57:33.107Z,1015.17
2023-01-02T05:58:33.293Z,1015.14
2023-01-02T05:59:36.138Z,1015.16
2023-01-02T06:00:33.617Z,1015.10
2023-01-02T06:01:33.865Z,1015.11
2023-01-02T06:02:34.108Z,1015.11
2023-01-02T06:03:34.175Z,1015.11
2023-01-02T06:04:34.328Z,1015.11
2023-01-02T06:05:34.515Z,1015.09
2023-01-02T06:06:34.679Z,1015.07
2023-01-02T06:07:34.853Z,1015.10
2023-01-02T06:08:35.017Z,1015.17
2023-01-02T06:09:35.179Z,1015.19
2023-01-02T06:10:35.345Z,1015.22
2023-01-02T06:11:35.497Z,1015.18
2023-01-02T06:12:35.688Z,1015.24
2023-01-02T06:13:35.851Z,1015.22
2023-01-02T06:14:36.036Z,1015.16
2023-01-02T06:15:36.188Z,1015.13
2023-01-02T06:16:36.417Z,1015.13
2023-01-02T06:17:36.568Z,1015.12
2023-01-02T06:18:36.737Z,1015.10
2023-01-02T06:19:36.909Z,1015.04
2023-01-02T06:20:37.067Z,1015.00
2023-01-02T06:21:37.228Z,1014.98
2023-01-02T06:22:37.431Z,1015.03
2023-01-02T06:23:37.563Z,1015.00
2023-01-02T06:24:37.770Z,1014.98
2023-01-02T06:25:37.907Z,1015.06
2023-01-02T06:26:38.069Z,1015.06
2023-01-02T06:27:38.267Z,1015.09
2023-01-02T06:28:38.422Z,1015.10
2023-01-02T06:29:38.569Z,1015.16
2023-01-02T06:30:38.737Z,1015.19
2023-01-02T06:31:40.026Z,1015.21
2023-01-02T06:32:39.159Z,1015.21
2023-01-02T06:33:39.250Z,1015.15
2023-01-02T06:34:39.444Z,1015.18
2023-01-02T06:35:39.607Z,1015.17
2023-01-02T06:36:39.783Z,1015.25
2023-01-02T06:37:39.936Z,1015.21
2023-01-02T06:38:40.088Z,1015.15
2023-01-02T06:39:40.258Z,1015.15
2023-01-02T06:40:40.420Z,1015.11
2023-01-02T06:41:40.575Z,1015.16
2023-01-02T06:42:40.779Z,1015.19
2023-01-02T06:43:40.960Z,1015.22
2023-01-02T06:44:41.108Z,1015.22
2023-01-02T06:45:41.288Z,1015.25
2023-01-02T06:46:41.485Z,1015.26
2023-01-02T06:47:41.648Z,1015.23
2023-01-02T06:48:41.827Z,1015.23
2023-01-02T06:49:41.982Z,1015.21
2023-01-02T06:50:42.143Z,1015.22
2023-01-02T06:51:42.301Z,1015.21
2023-01-02T06:52:42.477Z,1015.26
2023-01-02T06:53:42.643Z,1015.22
2023-01-02T06:54:42.800Z,1015.17
2023-01-02T06:55:42.967Z,1015.20
2023-01-02T06:56:43.138Z,1015.17
2023-01-02T06:57:43.322Z,1015.19
2023-01-02T06:58:43.513Z,1015.24
2023-01-02T06:59:43.668Z,1015.22
2023-01-02T07:00:43.959Z,1015.23
2023-01-02T07:01:44.207Z,1015.24
2023-01-02T07:02:44.326Z,1015.30
2023-01-02T07:03:44.398Z,1015.28
2023-01-02T07:04:44.579Z,1015.30
2023-01-02T07:05:44.744Z,1015.30
2023-01-02T07:06:44.930Z,1015.31
2023-01-02T07:07:45.111Z,1015.34
2023-01-02T07:08:45.262Z,1015.36
2023-01-02T07:09:45.432Z,1015.38
2023-01-02T07:10:52.496Z,1015.44
2023-01-02T07:11:46.769Z,1015.49
2023-01-02T07:12:45.962Z,1015.49
2023-01-02T07:13:46.104Z,1015.45
2023-01-02T07:14:46.307Z,1015.49
2023-01-02T07:15:46.470Z,1015.46
2023-01-02T07:16:46.721Z,1015.35
2023-01-02T07:17:46.844Z,1015.36
2023-01-02T07:18:46.997Z,1015.33
2023-01-02T07:19:53.209Z,1015.35
2023-01-02T07:20:48.337Z,1015.39
2023-01-02T07:21:47.504Z,1015.42
2023-01-02T07:22:47.692Z,1015.42
2023-01-02T07:23:47.879Z,1015.46
2023-01-02T07:24:48.006Z,1015.41
2023-01-02T07:25:48.187Z,1015.44
2023-01-02T07:26:48.397Z,1015.44
2023-01-02T07:27:48.588Z,1015.48
2023-01-02T07:28:48.729Z,1015.49
2023-01-02T07:29:48.928Z,1015.47
2023-01-02T07:30:49.122Z,1015.46
2023-01-02T07:31:49.288Z,1015.48
2023-01-02T07:32:49.427Z,1015.48
2023-01-02T07:33:49.592Z,1015.49
2023-01-02T07:34:49.772Z,1015.50
2023-01-02T07:35:49.921Z,1015.49
2023-01-02T07:36:50.115Z,1015.48
2023-01-02T07:37:50.320Z,1015.46
2023-01-02T07:38:50.480Z,1015.47
2023-01-02T07:39:50.653Z,1015.48
2023-01-02T07:40:50.842Z,1015.51
2023-01-02T07:41:51.033Z,1015.56
2023-01-02T07:42:51.214Z,1015.56
2023-01-02T07:43:51.415Z,1015.53
2023-01-02T07:44:51.564Z,1015.62
2023-01-02T07:45:51.777Z,1015.59
2023-01-02T07:46:51.936Z,1015.56
2023-01-02T07:47:52.146Z,1015.63
2023-01-02T07:48:52.283Z,1015.60
2023-01-02T07:49:52.480Z,1015.57
2023-01-02T07:50:52.664Z,1015.62
2023-01-02T07:51:52.826Z,1015.60
2023-01-02T07:52:52.999Z,1015.60
2023-01-02T07:53:53.148Z,1015.59
2023-01-02T07:54:53.340Z,1015.59
2023-01-02T07:55:53.528Z,1015.62
2023-01-02T07:56:53.711Z,1015.63
2023-01-02T07:57:53.881Z,1015.61
2023-01-02T07:58:54.029Z,1015.61
2023-01-02T07:59:54.212Z,1015.63
2023-01-02T08:00:58.401Z,1015.61
2023-01-02T08:01:55.631Z,1015.59
2023-01-02T08:02:54.708Z,1015.63
2023-01-02T08:03:54.953Z,1015.65
2023-01-02T08:04:55.074Z,1015.63
2023-01-02T08:05:55.274Z,1015.60
2023-01-02T08:06:55.429Z,1015.65
2023-01-02T08:07:55.593Z,1015.62
2023-01-02T08:08:55.743Z,1015.64
2023-01-02T08:09:55.930Z,1015.63
2023-01-02T08:10:56.084Z,1015.63
2023-01-02T08:11:56.275Z,1015.60
2023-01-02T08:12:56.463Z,1015.56
2023-01-02T08:13:56.612Z,1015.60
2023-01-02T08:14:56.796Z,1015.65
2023-01-02T08:15:56.972Z,1015.61
2023-01-02T08:16:57.192Z,1015.60
2023-01-02T08:17:57.304Z,1015.62
2023-01-02T08:18:57.565Z,1015.64
2023-01-02T08:20:01.678Z,1015.65
2023-01-02T08:20:58.798Z,1015.64
2023-01-02T08:21:57.963Z,1015.67
2023-01-02T08:22:58.155Z,1015.68
2023-01-02T08:23:58.290Z,1015.64
2023-01-02T08:24:58.481Z,1015.64
2023-01-02T08:25:58.661Z,1015.68
2023-01-02T08:26:58.823Z,1015.66
2023-01-02T08:27:59.017Z,1015.56
2023-01-02T08:28:59.163Z,1015.54
2023-01-02T08:29:59.382Z,1015.56
2023-01-02T08:30:59.535Z,1015.54
2023-01-02T08:31:59.692Z,1015.58
2023-01-02T08:32:59.872Z,1015.54
2023-01-02T08:34:00.072Z,1015.57
2023-01-02T08:35:00.219Z,1015.57
2023-01-02T08:36:00.403Z,1015.50
2023-01-02T08:37:00.541Z,1015.52
2023-01-02T08:38:00.734Z,1015.48
2023-01-02T08:39:00.874Z,1015.52
2023-01-02T08:40:01.072Z,1015.55
2023-01-02T08:41:01.245Z,1015.60
2023-01-02T08:42:01.440Z,1015.62
2023-01-02T08:43:01.663Z,1015.60
2023-01-02T08:44:01.787Z,1015.66
2023-01-02T08:45:01.962Z,1015.69
2023-01-02T08:46:02.173Z,1015.67
2023-01-02T08:47:02.332Z,1015.65
2023-01-02T08:48:19.680Z,1015.65
2023-01-02T08:49:03.694Z,1015.65
2023-01-02T08:50:02.857Z,1015.66
2023-01-02T08:51:03.031Z,1015.66
2023-01-02T08:52:03.221Z,1015.62
2023-01-02T08:53:05.676Z,1015.64
2023-01-02T08:54:03.564Z,1015.67
2023-01-02T08:55:03.764Z,1015.68
2023-01-02T08:56:03.936Z,1015.69
2023-01-02T08:57:04.119Z,1015.68
2023-01-02T08:58:04.318Z,1015.65
2023-01-02T08:59:04.467Z,1015.70
2023-01-02T09:00:04.649Z,1015.73
2023-01-02T09:01:04.874Z,1015.74
2023-01-02T09:02:05.092Z,1015.80
2023-01-02T09:03:05.356Z,1015.79
2023-01-02T09:04:11.875Z,1015.79
2023-01-02T09:05:06.534Z,1015.75
2023-01-02T09:06:05.725Z,1015.74
2023-01-02T09:07:05.906Z,1015.74
2023-01-02T09:08:06.119Z,1015.74
2023-01-02T09:09:11.366Z,1015.77
2023-01-02T09:10:07.455Z,1015.74
2023-01-02T09:11:06.625Z,1015.76
2023-01-02T09:12:06.815Z,1015.79
2023-01-02T09:13:07.006Z,1015.78
2023-01-02T09:14:07.162Z,1015.74
2023-01-02T09:15:07.355Z,1015.74
2023-01-02T09:16:07.583Z,1015.76
2023-01-02T09:17:07.705Z,1015.72
2023-01-02T09:18:07.978Z,1015.78
2023-01-02T09:19:08.096Z,1015.80
2023-01-02T09:20:08.254Z,1015.82
2023-01-02T09:21:08.438Z,1015.81
2023-01-02T09:22:08.627Z,1015.79
2023-01-02T09:23:08.827Z,1015.81
2023-01-02T09:24:08.979Z,1015.89
2023-01-02T09:25:09.166Z,1015.85
2023-01-02T09:26:09.323Z,1015.82
2023-01-02T09:27:09.495Z,1015.81
2023-01-02T09:28:09.701Z,1015.82
2023-01-02T09:29:09.868Z,1015.76
2023-01-02T09:30:10.046Z,1015.81
2023-01-02T09:31:12.283Z,1015.81
2023-01-02T09:32:10.413Z,1015.77
2023-01-02T09:33:10.611Z,1015.83
2023-01-02T09:34:10.764Z,1015.76
2023-01-02T09:35:10.935Z,1015.79
2023-01-02T09:36:11.137Z,1015.82
2023-01-02T09:37:11.285Z,1015.77
2023-01-02T09:38:11.482Z,1015.73
2023-01-02T09:39:11.625Z,1015.72
2023-01-02T09:40:11.815Z,1015.71
2023-01-02T09:41:11.994Z,1015.70
2023-01-02T09:42:12.181Z,1015.69
2023-01-02T09:43:12.396Z,1015.60
2023-01-02T09:44:12.524Z,1015.66
2023-01-02T09:45:12.714Z,1015.59
2023-01-02T09:46:12.976Z,1015.60
2023-01-02T09:47:13.055Z,1015.60
2023-01-02T09:48:13.266Z,1015.57
2023-01-02T09:49:13.448Z,1015.55
2023-01-02T09:50:13.583Z,1015.55
2023-01-02T09:51:13.750Z,1015.52
2023-01-02T09:52:13.905Z,1015.55
2023-01-02T09:53:14.077Z,1015.54
2023-01-02T09:54:14.213Z,1015.57
2023-01-02T09:55:14.396Z,1015.61
2023-01-02T09:56:21.053Z,1015.56
2023-01-02T09:57:15.745Z,1015.57
2023-01-02T09:58:14.937Z,1015.54
2023-01-02T09:59:15.069Z,1015.53
2023-01-02T10:00:15.260Z,1015.51
2023-01-02T10:01:15.532Z,1015.54
2023-01-02T10:02:15.610Z,1015.51
2023-01-02T10:03:15.940Z,1015.48
2023-01-02T10:04:16.028Z,1015.47
2023-01-02T10:05:16.117Z,1015.43
2023-01-02T10:06:16.306Z,1015.46
2023-01-02T10:07:16.497Z,1015.43
2023-01-02T10:08:16.683Z,1015.46
2023-01-02T10:09:16.824Z,1015.41
2023-01-02T10:10:17.000Z,1015.39
2023-01-02T10:11:17.184Z,1015.30
2023-01-02T10:12:17.378Z,1015.23
2023-01-02T10:13:17.607Z,1015.33
2023-01-02T10:14:19.797Z,1015.30
2023-01-02T10:15:17.860Z,1015.32
2023-01-02T10:16:18.081Z,1015.33
2023-01-02T10:17:18.205Z,1015.35
2023-01-02T10:18:18.425Z,1015.33
2023-01-02T10:19:18.552Z,1015.30
2023-01-02T10:20:23.819Z,1015.21
2023-01-02T10:21:19.892Z,1015.25
2023-01-02T10:22:19.078Z,1015.24
2023-01-02T10:23:19.275Z,1015.22
2023-01-02T10:24:19.429Z,1015.26
2023-01-02T10:25:19.616Z,1015.30
2023-01-02T10:26:19.814Z,1015.31
2023-01-02T10:27:19.984Z,1015.27
2023-01-02T10:28:20.167Z,1015.24
2023-01-02T10:29:20.349Z,1015.19
2023-01-02T10:30:20.548Z,1015.19
2023-01-02T10:31:20.738Z,1015.13
2023-01-02T10:32:20.920Z,1015.15
2023-01-02T10:33:21.103Z,1015.20
2023-01-02T10:34:21.270Z,1015.15
2023-01-02T10:35:21.435Z,1015.24
2023-01-02T10:36:21.609Z,1015.21
2023-01-02T10:37:21.804Z,1015.27
2023-01-02T10:38:22.035Z,1015.27
2023-01-02T10:39:22.182Z,1015.27
2023-01-02T10:40:22.329Z,1015.28
2023-01-02T10:41:22.518Z,1015.28
2023-01-02T10:42:22.702Z,1015.26
2023-01-02T10:43:22.915Z,1015.26
2023-01-02T10:44:23.047Z,1015.25
2023-01-02T10:45:23.229Z,1015.23
2023-01-02T10:46:23.450Z,1015.25
2023-01-02T10:47:23.583Z,1015.21
2023-01-02T10:48:23.780Z,1015.19
2023-01-02T10:49:23.951Z,1015.22
2023-01-02T10:50:24.130Z,1015.22
2023-01-02T10:51:24.320Z,1015.22
2023-01-02T10:52:24.485Z,1015.21
2023-01-02T10:53:24.680Z,1015.28
2023-01-02T10:54:24.836Z,1015.20
2023-01-02T10:55:24.973Z,1015.26
2023-01-02T10:56:25.160Z,1015.26
2023-01-02T10:57:25.341Z,1015.29
2023-01-02T10:58:25.550Z,1015.24
2023-01-02T10:59:25.681Z,1015.24
2023-01-02T11:00:28.395Z,1015.26
2023-01-02T11:01:26.137Z,1015.26
2023-01-02T11:02:26.332Z,1015.25
2023-01-02T11:03:26.381Z,1015.19
2023-01-02T11:04:26.569Z,1015.16
2023-01-02T11:05:26.708Z,1015.15
2023-01-02T11:06:29.034Z,1015.14
2023-01-02T11:07:27.021Z,1015.12
2023-01-02T11:08:27.209Z,1015.11
2023-01-02T11:09:27.392Z,1015.14
2023-01-02T11:10:27.562Z,1015.07
2023-01-02T11:11:27.701Z,1015.05
2023-01-02T11:12:27.879Z,1015.03
2023-01-02T11:13:28.071Z,1015.04
2023-01-02T11:14:28.271Z,1015.07
2023-01-02T11:15:28.415Z,1015.06
2023-01-02T11:16:28.623Z,1015.03
2023-01-02T11:17:28.762Z,1014.94
2023-01-02T11:18:28.964Z,1014.91
2023-01-02T11:19:29.995Z,1014.93
2023-01-02T11:20:29.340Z,1014.94
2023-01-02T11:21:29.511Z,1014.99
2023-01-02T11:22:29.693Z,1015.06
2023-01-02T11:23:29.832Z,1015.07
2023-01-02T11:24:30.044Z,1015.10
2023-01-02T11:25:30.175Z,1015.08
2023-01-02T11:26:30.362Z,1015.11
2023-01-02T11:27:30.564Z,1015.09
2023-01-02T11:28:30.745Z,1015.08
2023-01-02T11:29:30.930Z,1015.13
2023-01-02T11:30:31.122Z,1015.15
2023-01-02T11:31:31.369Z,1015.10
2023-01-02T11:32:31.473Z,1015.14
2023-01-02T11:33:31.673Z,1015.06
2023-01-02T11:34:31.867Z,1015.08
2023-01-02T11:35:32.034Z,1015.14
2023-01-02T11:36:32.218Z,1015.14
2023-01-02T11:37:32.386Z,1015.21
2023-01-02T11:38:32.577Z,1015.21
2023-01-02T11:39:32.775Z,1015.23
2023-01-02T11:40:32.973Z,1015.25
2023-01-02T11:41:33.094Z,1015.23
2023-01-02T11:42:33.266Z,1015.17
2023-01-02T11:43:33.443Z,1015.17
2023-01-02T11:44:33.646Z,1015.16
2023-01-02T11:45:33.863Z,1015.17
2023-01-02T11:46:33.984Z,1015.13
2023-01-02T11:47:34.174Z,1015.14
2023-01-02T11:48:34.365Z,1015.12
2023-01-02T11:49:34.544Z,1015.12
2023-01-02T11:50:34.715Z,1015.21
2023-01-02T11:51:34.906Z,1015.22
2023-01-02T11:52:35.110Z,1015.20
2023-01-02T11:53:35.278Z,1015.20
2023-01-02T11:54:35.468Z,1015.19
2023-01-02T11:55:35.635Z,1015.09
2023-01-02T11:56:35.796Z,1015.17
2023-01-02T11:57:35.996Z,1015.13
2023-01-02T11:58:36.154Z,1015.10
2023-01-02T11:59:36.354Z,1015.11
2023-01-02T12:00:36.516Z,1015.14
2023-01-02T12:01:36.811Z,1015.14
2023-01-02T12:02:36.883Z,1015.14
2023-01-02T12:03:37.075Z,1015.09
2023-01-02T12:04:37.236Z,1015.10
2023-01-02T12:05:37.384Z,1015.13
2023-01-02T12:06:37.560Z,1015.13
2023-01-02T12:07:37.756Z,1015.18